Decoded Metar for KUSE ( in ) (IATA:) | Meteo·Mobile Aviation Weather
aviador You're here:

KUSE Decoded Metar

in
Report Time2018-08-21 07:45:00
UTC Time2018-08-21 07:50:56
Flight Rules ifr IFR
Wind150° at 04 kt
W.Decomp.*RWY 18: 3.5 kt HW 2 kt LCW
RWY 09: 2.0 kt HW 3.5 kt RCW
W.Rank150° ranks 30
Current wind is below 150° avg. (6.9)
Visibility6437 m
Phenomena:Mist
Clouds:Broken 008 Hf
Broken 044 Hf
Ceiling800 ft
Temp21°C
Dew Point21°C (100% RH)
QNH1009 hPa
Raw Report
KUSE 210745Z AUTO 15004KT 4SM BR BKN008 BKN044 21/21 A2981 RMK
AO2=

Extra information for KUSE:More info

Social comments